KPAH/PAH METAR and TAF weather

Enter ICAO airport designator
Station Type Date Time Source
KPAH METAR 2020/01/17 13:53 UTC NOAA

KPAH 171353Z 08008KT 10SM OVC110 M01/M06 A3062 RMK AO2 SLP373 T10061056


Station Type Date Time Source
KPAH Decoded METAR 2020/01/17 13:53 UTC NOAA

BARKLEY REGIONAL AIRPORT, KY, United States (KPAH) 37-03N 088-46W 118M
Jan 17, 2020 - 08:53 AM EST / 2020.01.17 1353 UTC
Wind: from the E (080 degrees) at 9 MPH (8 KT):0
Visibility: 10 mile(s):0
Sky conditions: overcast
Temperature: 30.9 F (-0.6 C)
Windchill: 23 F (-5 C):1
Dew Point: 21.9 F (-5.6 C)
Relative Humidity: 68%
Pressure (altimeter): 30.62 in. Hg (1036 hPa)
ob: KPAH 171353Z 08008KT 10SM OVC110 M01/M06 A3062 RMK AO2 SLP373 T10061056
cycle: 14

Station Type Date Time Source
KPAH TAF 2020/01/17 12:22 UTC NOAA

TAF KPAH 171120Z 1712/1812 07009KT P6SM BKN180
FM171800 09010KT P6SM VCSH OVC070
FM180100 13011KT P6SM -SHRA OVC060
FM180600 18015G26KT P6SM SHRA OVC026 WS020/19050KT

Example: see airport list